sensor_id;sensor_type;location;lat;lon;timestamp;pressure;altitude;pressure_sealevel;temperature;humidity
31538;BME280;18147;51.952;6.146;2023-12-20T00:02:14;101525.25;;;6.20;100.00
31538;BME280;18147;51.952;6.146;2023-12-20T00:04:39;101534.88;;;6.22;100.00
31538;BME280;18147;51.952;6.146;2023-12-20T00:07:08;101535.13;;;6.15;100.00
31538;BME280;18147;51.952;6.146;2023-12-20T00:09:36;101542.38;;;6.10;100.00
31538;BME280;18147;51.952;6.146;2023-12-20T00:12:10;101523.78;;;6.11;100.00
31538;BME280;18147;51.952;6.146;2023-12-20T00:14:36;101517.84;;;6.05;100.00
31538;BME280;18147;51.952;6.146;2023-12-20T00:17:10;101520.41;;;6.06;100.00
31538;BME280;18147;51.952;6.146;2023-12-20T00:19:36;101517.91;;;6.02;100.00
31538;BME280;18147;51.952;6.146;2023-12-20T00:22:10;101524.19;;;5.99;100.00
31538;BME280;18147;51.952;6.146;2023-12-20T00:24:36;101529.72;;;5.91;100.00
31538;BME280;18147;51.952;6.146;2023-12-20T00:27:09;101540.28;;;5.93;100.00
31538;BME280;18147;51.952;6.146;2023-12-20T00:29:35;101535.88;;;5.93;100.00
31538;BME280;18147;51.952;6.146;2023-12-20T00:32:01;101536.66;;;5.95;100.00
31538;BME280;18147;51.952;6.146;2023-12-20T00:34:26;101533.00;;;6.00;100.00
31538;BME280;18147;51.952;6.146;2023-12-20T00:36:52;101534.72;;;6.01;100.00
31538;BME280;18147;51.952;6.146;2023-12-20T00:39:17;101539.06;;;6.03;100.00
31538;BME280;18147;51.952;6.146;2023-12-20T00:41:42;101534.38;;;6.11;100.00
31538;BME280;18147;51.952;6.146;2023-12-20T00:44:08;101532.69;;;6.09;100.00
31538;BME280;18147;51.952;6.146;2023-12-20T00:46:34;101529.94;;;6.12;100.00
31538;BME280;18147;51.952;6.146;2023-12-20T00:49:06;101532.91;;;6.03;100.00
31538;BME280;18147;51.952;6.146;2023-12-20T00:51:40;101543.59;;;6.00;100.00
31538;BME280;18147;51.952;6.146;2023-12-20T00:54:06;101534.78;;;5.99;100.00
31538;BME280;18147;51.952;6.146;2023-12-20T00:56:33;101527.00;;;5.94;100.00
31538;BME280;18147;51.952;6.146;2023-12-20T00:58:58;101532.34;;;5.93;100.00
31538;BME280;18147;51.952;6.146;2023-12-20T01:01:24;101527.97;;;5.90;100.00
31538;BME280;18147;51.952;6.146;2023-12-20T01:03:58;101522.69;;;5.90;100.00
31538;BME280;18147;51.952;6.146;2023-12-20T01:06:24;101526.31;;;5.88;100.00
31538;BME280;18147;51.952;6.146;2023-12-20T01:08:50;101525.53;;;5.84;100.00
31538;BME280;18147;51.952;6.146;2023-12-20T01:11:17;101530.00;;;5.82;100.00
31538;BME280;18147;51.952;6.146;2023-12-20T01:13:43;101528.38;;;5.78;100.00
31538;BME280;18147;51.952;6.146;2023-12-20T01:16:10;101528.34;;;5.80;100.00
31538;BME280;18147;51.952;6.146;2023-12-20T01:18:42;101529.28;;;5.77;100.00
31538;BME280;18147;51.952;6.146;2023-12-20T01:21:07;101523.19;;;5.75;100.00
31538;BME280;18147;51.952;6.146;2023-12-20T01:23:33;101530.34;;;5.71;100.00
31538;BME280;18147;51.952;6.146;2023-12-20T01:26:07;101525.03;;;5.73;100.00
31538;BME280;18147;51.952;6.146;2023-12-20T01:28:33;101517.94;;;5.74;100.00
31538;BME280;18147;51.952;6.146;2023-12-20T01:30:58;101517.94;;;5.74;100.00
31538;BME280;18147;51.952;6.146;2023-12-20T01:33:24;101525.13;;;5.70;100.00
31538;BME280;18147;51.952;6.146;2023-12-20T01:35:50;101521.66;;;5.68;100.00
31538;BME280;18147;51.952;6.146;2023-12-20T01:38:15;101510.16;;;5.69;100.00
31538;BME280;18147;51.952;6.146;2023-12-20T01:40:44;101519.16;;;5.63;100.00
31538;BME280;18147;51.952;6.146;2023-12-20T01:43:10;101520.94;;;5.63;100.00
31538;BME280;18147;51.952;6.146;2023-12-20T01:45:37;101529.69;;;5.65;100.00
31538;BME280;18147;51.952;6.146;2023-12-20T01:48:07;101521.94;;;5.59;100.00
31538;BME280;18147;51.952;6.146;2023-12-20T01:50:36;101524.53;;;5.60;100.00
31538;BME280;18147;51.952;6.146;2023-12-20T01:53:07;101528.16;;;5.58;100.00
31538;BME280;18147;51.952;6.146;2023-12-20T01:55:39;101533.47;;;5.58;100.00
31538;BME280;18147;51.952;6.146;2023-12-20T01:58:09;101523.63;;;5.61;100.00
31538;BME280;18147;51.952;6.146;2023-12-20T02:00:38;101524.66;;;5.57;100.00
31538;BME280;18147;51.952;6.146;2023-12-20T02:03:04;101529.06;;;5.57;100.00
31538;BME280;18147;51.952;6.146;2023-12-20T02:05:34;101519.25;;;5.60;100.00
31538;BME280;18147;51.952;6.146;2023-12-20T02:08:06;101519.81;;;5.70;100.00
31538;BME280;18147;51.952;6.146;2023-12-20T02:10:32;101525.75;;;5.78;100.00
31538;BME280;18147;51.952;6.146;2023-12-20T02:12:58;101515.25;;;5.75;100.00
31538;BME280;18147;51.952;6.146;2023-12-20T02:15:24;101516.97;;;5.76;100.00
31538;BME280;18147;51.952;6.146;2023-12-20T02:17:50;101517.66;;;5.83;100.00
31538;BME280;18147;51.952;6.146;2023-12-20T02:20:16;101520.91;;;5.92;100.00
31538;BME280;18147;51.952;6.146;2023-12-20T02:22:41;101523.34;;;5.99;100.00
31538;BME280;18147;51.952;6.146;2023-12-20T02:25:07;101512.03;;;5.93;100.00
31538;BME280;18147;51.952;6.146;2023-12-20T02:27:33;101506.75;;;5.93;100.00
31538;BME280;18147;51.952;6.146;2023-12-20T02:30:06;101508.59;;;5.90;100.00
31538;BME280;18147;51.952;6.146;2023-12-20T02:32:34;101501.72;;;5.84;100.00
31538;BME280;18147;51.952;6.146;2023-12-20T02:34:59;101499.16;;;5.81;100.00
31538;BME280;18147;51.952;6.146;2023-12-20T02:37:28;101504.50;;;5.80;100.00
31538;BME280;18147;51.952;6.146;2023-12-20T02:39:54;101503.75;;;5.76;100.00
31538;BME280;18147;51.952;6.146;2023-12-20T02:42:19;101495.91;;;5.73;100.00
31538;BME280;18147;51.952;6.146;2023-12-20T02:44:45;101495.09;;;5.71;100.00
31538;BME280;18147;51.952;6.146;2023-12-20T02:47:11;101486.50;;;5.64;100.00
31538;BME280;18147;51.952;6.146;2023-12-20T02:49:37;101492.59;;;5.66;100.00
31538;BME280;18147;51.952;6.146;2023-12-20T02:52:08;101494.13;;;5.74;100.00
31538;BME280;18147;51.952;6.146;2023-12-20T02:54:34;101492.22;;;5.77;100.00
31538;BME280;18147;51.952;6.146;2023-12-20T02:57:02;101485.19;;;5.78;100.00
31538;BME280;18147;51.952;6.146;2023-12-20T02:59:39;101481.47;;;5.83;100.00
31538;BME280;18147;51.952;6.146;2023-12-20T03:02:08;101486.84;;;5.80;100.00
31538;BME280;18147;51.952;6.146;2023-12-20T03:04:33;101482.56;;;5.76;100.00
31538;BME280;18147;51.952;6.146;2023-12-20T03:06:59;101478.00;;;5.81;100.00
31538;BME280;18147;51.952;6.146;2023-12-20T03:09:24;101474.25;;;5.88;100.00
31538;BME280;18147;51.952;6.146;2023-12-20T03:11:50;101479.41;;;5.93;100.00
31538;BME280;18147;51.952;6.146;2023-12-20T03:14:15;101472.03;;;6.03;100.00
31538;BME280;18147;51.952;6.146;2023-12-20T03:16:50;101467.75;;;5.99;100.00
31538;BME280;18147;51.952;6.146;2023-12-20T03:19:19;101463.09;;;6.05;100.00
31538;BME280;18147;51.952;6.146;2023-12-20T03:21:45;101464.88;;;6.05;100.00
31538;BME280;18147;51.952;6.146;2023-12-20T03:24:10;101455.38;;;5.99;100.00
31538;BME280;18147;51.952;6.146;2023-12-20T03:26:36;101454.59;;;5.95;100.00
31538;BME280;18147;51.952;6.146;2023-12-20T03:29:07;101452.25;;;5.86;100.00
31538;BME280;18147;51.952;6.146;2023-12-20T03:31:33;101452.34;;;5.83;100.00
31538;BME280;18147;51.952;6.146;2023-12-20T03:33:58;101458.75;;;5.76;100.00
31538;BME280;18147;51.952;6.146;2023-12-20T03:36:24;101463.34;;;5.71;100.00
31538;BME280;18147;51.952;6.146;2023-12-20T03:38:49;101465.13;;;5.70;100.00
31538;BME280;18147;51.952;6.146;2023-12-20T03:41:15;101454.69;;;5.66;100.00
31538;BME280;18147;51.952;6.146;2023-12-20T03:43:41;101455.69;;;5.62;100.00
31538;BME280;18147;51.952;6.146;2023-12-20T03:46:08;101450.41;;;5.62;100.00
31538;BME280;18147;51.952;6.146;2023-12-20T03:48:34;101452.31;;;5.58;100.00
31538;BME280;18147;51.952;6.146;2023-12-20T03:51:02;101455.88;;;5.57;100.00
31538;BME280;18147;51.952;6.146;2023-12-20T03:53:28;101457.69;;;5.55;100.00
31538;BME280;18147;51.952;6.146;2023-12-20T03:55:53;101443.38;;;5.61;100.00
31538;BME280;18147;51.952;6.146;2023-12-20T03:58:19;101450.63;;;5.56;100.00
31538;BME280;18147;51.952;6.146;2023-12-20T04:00:44;101447.09;;;5.55;100.00
31538;BME280;18147;51.952;6.146;2023-12-20T04:03:10;101448.25;;;5.48;100.00
31538;BME280;18147;51.952;6.146;2023-12-20T04:05:40;101458.75;;;5.50;100.00
31538;BME280;18147;51.952;6.146;2023-12-20T04:08:08;101456.97;;;5.50;100.00
31538;BME280;18147;51.952;6.146;2023-12-20T04:10:43;101462.25;;;5.50;100.00
31538;BME280;18147;51.952;6.146;2023-12-20T04:13:08;101462.31;;;5.49;100.00
31538;BME280;18147;51.952;6.146;2023-12-20T04:15:34;101468.28;;;5.55;100.00
31538;BME280;18147;51.952;6.146;2023-12-20T04:18:06;101466.63;;;5.51;100.00
31538;BME280;18147;51.952;6.146;2023-12-20T04:20:36;101464.81;;;5.53;100.00
31538;BME280;18147;51.952;6.146;2023-12-20T04:23:07;101459.25;;;5.62;100.00
31538;BME280;18147;51.952;6.146;2023-12-20T04:25:33;101463.47;;;5.68;100.00
31538;BME280;18147;51.952;6.146;2023-12-20T04:27:58;101466.75;;;5.75;100.00
31538;BME280;18147;51.952;6.146;2023-12-20T04:30:24;101461.88;;;5.89;100.00
31538;BME280;18147;51.952;6.146;2023-12-20T04:32:49;101457.97;;;6.01;100.00
31538;BME280;18147;51.952;6.146;2023-12-20T04:35:15;101449.09;;;6.02;100.00
31538;BME280;18147;51.952;6.146;2023-12-20T04:37:40;101442.28;;;5.94;100.00
31538;BME280;18147;51.952;6.146;2023-12-20T04:40:07;101446.09;;;5.86;100.00
31538;BME280;18147;51.952;6.146;2023-12-20T04:42:33;101441.63;;;5.88;100.00
31538;BME280;18147;51.952;6.146;2023-12-20T04:44:59;101443.34;;;5.89;100.00
31538;BME280;18147;51.952;6.146;2023-12-20T04:47:31;101451.09;;;5.95;100.00
31538;BME280;18147;51.952;6.146;2023-12-20T04:50:08;101455.25;;;6.02;100.00
31538;BME280;18147;51.952;6.146;2023-12-20T04:52:38;101443.16;;;5.95;100.00
31538;BME280;18147;51.952;6.146;2023-12-20T04:55:07;101447.81;;;5.87;100.00
31538;BME280;18147;51.952;6.146;2023-12-20T04:57:38;101439.78;;;5.90;100.00
31538;BME280;18147;51.952;6.146;2023-12-20T05:00:08;101442.38;;;5.91;100.00
31538;BME280;18147;51.952;6.146;2023-12-20T05:02:35;101450.31;;;5.93;100.00
31538;BME280;18147;51.952;6.146;2023-12-20T05:05:07;101444.13;;;5.91;100.00
31538;BME280;18147;51.952;6.146;2023-12-20T05:07:33;101443.59;;;6.08;100.00
31538;BME280;18147;51.952;6.146;2023-12-20T05:09:59;101431.25;;;6.07;100.00
31538;BME280;18147;51.952;6.146;2023-12-20T05:12:28;101430.19;;;6.12;100.00
31538;BME280;18147;51.952;6.146;2023-12-20T05:14:54;101424.84;;;6.14;100.00
31538;BME280;18147;51.952;6.146;2023-12-20T05:17:20;101421.97;;;6.20;100.00
31538;BME280;18147;51.952;6.146;2023-12-20T05:19:48;101412.34;;;6.17;100.00
31538;BME280;18147;51.952;6.146;2023-12-20T05:22:14;101416.69;;;6.20;100.00
31538;BME280;18147;51.952;6.146;2023-12-20T05:24:43;101401.66;;;6.20;100.00
31538;BME280;18147;51.952;6.146;2023-12-20T05:27:09;101393.81;;;6.17;100.00
31538;BME280;18147;51.952;6.146;2023-12-20T05:29:38;101399.09;;;6.17;100.00
31538;BME280;18147;51.952;6.146;2023-12-20T05:32:12;101398.31;;;6.15;100.00
31538;BME280;18147;51.952;6.146;2023-12-20T05:34:41;101399.25;;;6.14;100.00
31538;BME280;18147;51.952;6.146;2023-12-20T05:37:06;101404.13;;;6.25;100.00
31538;BME280;18147;51.952;6.146;2023-12-20T05:39:41;101410.38;;;6.24;100.00
31538;BME280;18147;51.952;6.146;2023-12-20T05:42:10;101410.38;;;6.24;100.00
31538;BME280;18147;51.952;6.146;2023-12-20T05:44:36;101408.34;;;6.31;100.00
31538;BME280;18147;51.952;6.146;2023-12-20T05:47:08;101409.16;;;6.33;100.00
31538;BME280;18147;51.952;6.146;2023-12-20T05:49:37;101409.09;;;6.34;100.00
31538;BME280;18147;51.952;6.146;2023-12-20T05:52:06;101407.09;;;6.41;100.00
31538;BME280;18147;51.952;6.146;2023-12-20T05:54:37;101408.19;;;6.35;100.00
31538;BME280;18147;51.952;6.146;2023-12-20T05:57:02;101401.63;;;6.45;100.00
31538;BME280;18147;51.952;6.146;2023-12-20T05:59:31;101399.91;;;6.44;100.00
31538;BME280;18147;51.952;6.146;2023-12-20T06:02:07;101400.69;;;6.46;100.00
31538;BME280;18147;51.952;6.146;2023-12-20T06:04:32;101402.94;;;6.57;100.00
31538;BME280;18147;51.952;6.146;2023-12-20T06:07:01;101407.19;;;6.61;100.00
31538;BME280;18147;51.952;6.146;2023-12-20T06:09:29;101402.72;;;6.63;100.00
31538;BME280;18147;51.952;6.146;2023-12-20T06:11:58;101402.75;;;6.62;100.00
31538;BME280;18147;51.952;6.146;2023-12-20T06:14:24;101403.53;;;6.65;100.00
31538;BME280;18147;51.952;6.146;2023-12-20T06:16:50;101391.06;;;6.67;100.00
31538;BME280;18147;51.952;6.146;2023-12-20T06:19:15;101393.53;;;6.72;100.00
31538;BME280;18147;51.952;6.146;2023-12-20T06:21:41;101394.38;;;6.74;100.00
31538;BME280;18147;51.952;6.146;2023-12-20T06:24:06;101392.41;;;6.79;100.00
31538;BME280;18147;51.952;6.146;2023-12-20T06:26:36;101383.69;;;6.75;100.00
31538;BME280;18147;51.952;6.146;2023-12-20T06:29:08;101379.88;;;6.83;100.00
31538;BME280;18147;51.952;6.146;2023-12-20T06:31:34;101381.66;;;6.82;100.00
31538;BME280;18147;51.952;6.146;2023-12-20T06:34:02;101381.44;;;6.88;100.00
31538;BME280;18147;51.952;6.146;2023-12-20T06:36:34;101373.59;;;6.85;100.00
31538;BME280;18147;51.952;6.146;2023-12-20T06:38:59;101366.63;;;6.83;100.00
31538;BME280;18147;51.952;6.146;2023-12-20T06:41:29;101362.88;;;6.88;100.00
31538;BME280;18147;51.952;6.146;2023-12-20T06:43:54;101360.41;;;6.84;100.00
31538;BME280;18147;51.952;6.146;2023-12-20T06:46:26;101367.53;;;6.82;100.00
31538;BME280;18147;51.952;6.146;2023-12-20T06:48:51;101362.88;;;6.88;100.00
31538;BME280;18147;51.952;6.146;2023-12-20T06:51:17;101370.78;;;6.90;100.00
31538;BME280;18147;51.952;6.146;2023-12-20T06:53:45;101372.41;;;6.92;100.00
31538;BME280;18147;51.952;6.146;2023-12-20T06:56:11;101362.81;;;6.90;100.00
31538;BME280;18147;51.952;6.146;2023-12-20T06:58:37;101364.69;;;6.88;100.00
31538;BME280;18147;51.952;6.146;2023-12-20T07:01:11;101364.59;;;6.89;100.00
31538;BME280;18147;51.952;6.146;2023-12-20T07:03:36;101361.19;;;6.86;100.00
31538;BME280;18147;51.952;6.146;2023-12-20T07:06:08;101369.34;;;6.81;100.00
31538;BME280;18147;51.952;6.146;2023-12-20T07:08:37;101352.50;;;6.82;100.00
31538;BME280;18147;51.952;6.146;2023-12-20T07:11:08;101366.75;;;6.80;100.00
31538;BME280;18147;51.952;6.146;2023-12-20T07:13:38;101363.28;;;6.78;100.00
31538;BME280;18147;51.952;6.146;2023-12-20T07:16:06;101373.59;;;6.85;100.00
31538;BME280;18147;51.952;6.146;2023-12-20T07:18:38;101368.59;;;6.78;100.00
31538;BME280;18147;51.952;6.146;2023-12-20T07:21:06;101367.72;;;6.77;100.00
31538;BME280;18147;51.952;6.146;2023-12-20T07:23:33;101362.06;;;6.86;100.00
31538;BME280;18147;51.952;6.146;2023-12-20T07:25:59;101363.09;;;6.82;100.00
31538;BME280;18147;51.952;6.146;2023-12-20T07:28:24;101361.28;;;6.84;100.00
31538;BME280;18147;51.952;6.146;2023-12-20T07:30:50;101364.78;;;6.85;100.00
31538;BME280;18147;51.952;6.146;2023-12-20T07:33:16;101367.44;;;6.85;100.00
31538;BME280;18147;51.952;6.146;2023-12-20T07:35:41;101367.25;;;6.89;100.00
31538;BME280;18147;51.952;6.146;2023-12-20T07:38:07;101373.34;;;6.91;100.00
31538;BME280;18147;51.952;6.146;2023-12-20T07:40:32;101363.00;;;6.85;100.00
31538;BME280;18147;51.952;6.146;2023-12-20T07:42:58;101362.88;;;6.88;100.00
31538;BME280;18147;51.952;6.146;2023-12-20T07:45:24;101367.44;;;6.85;100.00
31538;BME280;18147;51.952;6.146;2023-12-20T07:47:52;101363.69;;;6.90;100.00
31538;BME280;18147;51.952;6.146;2023-12-20T07:50:18;101360.94;;;6.92;100.00
31538;BME280;18147;51.952;6.146;2023-12-20T07:52:43;101363.69;;;6.90;100.00
31538;BME280;18147;51.952;6.146;2023-12-20T07:55:09;101367.94;;;6.94;100.00
31538;BME280;18147;51.952;6.146;2023-12-20T07:57:38;101368.03;;;6.91;100.00
31538;BME280;18147;51.952;6.146;2023-12-20T08:00:07;101364.69;;;6.88;100.00
31538;BME280;18147;51.952;6.146;2023-12-20T08:02:41;101366.56;;;6.84;100.00
31538;BME280;18147;51.952;6.146;2023-12-20T08:05:07;101373.41;;;6.90;100.00
31538;BME280;18147;51.952;6.146;2023-12-20T08:07:33;101375.38;;;6.85;100.00
31538;BME280;18147;51.952;6.146;2023-12-20T08:09:58;101374.00;;;6.98;100.00
31538;BME280;18147;51.952;6.146;2023-12-20T08:12:24;101383.22;;;6.88;100.00
31538;BME280;18147;51.952;6.146;2023-12-20T08:14:53;101376.75;;;6.95;100.00
31538;BME280;18147;51.952;6.146;2023-12-20T08:17:18;101376.75;;;6.95;100.00
31538;BME280;18147;51.952;6.146;2023-12-20T08:19:51;101377.53;;;6.97;100.00
31538;BME280;18147;51.952;6.146;2023-12-20T08:22:17;101380.00;;;7.01;100.00
31538;BME280;18147;51.952;6.146;2023-12-20T08:24:42;101380.75;;;7.05;100.00
31538;BME280;18147;51.952;6.146;2023-12-20T08:27:08;101378.03;;;7.07;100.00
31538;BME280;18147;51.952;6.146;2023-12-20T08:29:38;101376.31;;;7.06;100.00
31538;BME280;18147;51.952;6.146;2023-12-20T08:32:12;101378.78;;;7.10;100.00
31538;BME280;18147;51.952;6.146;2023-12-20T08:34:41;101368.97;;;7.12;100.00
31538;BME280;18147;51.952;6.146;2023-12-20T08:37:10;101371.31;;;7.20;100.00
31538;BME280;18147;51.952;6.146;2023-12-20T08:39:38;101360.78;;;7.18;100.00
31538;BME280;18147;51.952;6.146;2023-12-20T08:42:07;101365.09;;;7.21;100.00
31538;BME280;18147;51.952;6.146;2023-12-20T08:44:32;101361.38;;;7.25;100.00
31538;BME280;18147;51.952;6.146;2023-12-20T08:46:58;101361.50;;;7.22;100.00
31538;BME280;18147;51.952;6.146;2023-12-20T08:49:24;101347.25;;;7.24;100.00
31538;BME280;18147;51.952;6.146;2023-12-20T08:51:53;101347.38;;;7.21;100.00
31538;BME280;18147;51.952;6.146;2023-12-20T08:54:19;101349.91;;;7.24;100.00
31538;BME280;18147;51.952;6.146;2023-12-20T08:56:45;101358.34;;;7.34;100.00
31538;BME280;18147;51.952;6.146;2023-12-20T08:59:15;101350.41;;;7.34;100.00
31538;BME280;18147;51.952;6.146;2023-12-20T09:01:40;101345.47;;;7.25;100.00
31538;BME280;18147;51.952;6.146;2023-12-20T09:04:09;101349.06;;;7.24;100.00
31538;BME280;18147;51.952;6.146;2023-12-20T09:06:34;101354.19;;;7.29;100.00
31538;BME280;18147;51.952;6.146;2023-12-20T09:09:00;101348.91;;;7.27;100.00
31538;BME280;18147;51.952;6.146;2023-12-20T09:11:26;101354.72;;;7.15;100.00
31538;BME280;18147;51.952;6.146;2023-12-20T09:13:51;101361.50;;;7.22;100.00
31538;BME280;18147;51.952;6.146;2023-12-20T09:16:17;101362.50;;;7.19;100.00
31538;BME280;18147;51.952;6.146;2023-12-20T09:18:42;101370.75;;;7.12;100.00
31538;BME280;18147;51.952;6.146;2023-12-20T09:21:08;101369.97;;;7.10;100.00
31538;BME280;18147;51.952;6.146;2023-12-20T09:23:33;101371.88;;;7.06;100.00
31538;BME280;18147;51.952;6.146;2023-12-20T09:25:59;101369.41;;;7.01;100.00
31538;BME280;18147;51.952;6.146;2023-12-20T09:28:28;101379.03;;;7.04;100.00
31538;BME280;18147;51.952;6.146;2023-12-20T09:30:54;101372.22;;;6.97;100.00
31538;BME280;18147;51.952;6.146;2023-12-20T09:33:19;101374.66;;;7.03;100.00
31538;BME280;18147;51.952;6.146;2023-12-20T09:35:45;101377.69;;;6.94;100.00
31538;BME280;18147;51.952;6.146;2023-12-20T09:38:10;101380.00;;;7.01;100.00
31538;BME280;18147;51.952;6.146;2023-12-20T09:40:41;101387.97;;;7.01;100.00
31538;BME280;18147;51.952;6.146;2023-12-20T09:43:10;101388.78;;;7.04;100.00
31538;BME280;18147;51.952;6.146;2023-12-20T09:45:36;101387.28;;;6.96;100.00
31538;BME280;18147;51.952;6.146;2023-12-20T09:48:07;101374.16;;;6.93;100.00
31538;BME280;18147;51.952;6.146;2023-12-20T09:50:33;101391.44;;;7.04;100.00
31538;BME280;18147;51.952;6.146;2023-12-20T09:53:00;101387.44;;;6.93;100.00
31538;BME280;18147;51.952;6.146;2023-12-20T09:55:31;101389.91;;;6.98;100.00
31538;BME280;18147;51.952;6.146;2023-12-20T09:57:59;101399.84;;;6.91;100.00
31538;BME280;18147;51.952;6.146;2023-12-20T10:00:32;101413.06;;;6.93;100.00
31538;BME280;18147;51.952;6.146;2023-12-20T10:02:59;101404.81;;;7.00;100.00
31538;BME280;18147;51.952;6.146;2023-12-20T10:05:38;101409.34;;;6.97;100.00
31538;BME280;18147;51.952;6.146;2023-12-20T10:08:08;101406.66;;;6.98;100.00
31538;BME280;18147;51.952;6.146;2023-12-20T10:10:33;101403.16;;;6.98;100.00
31538;BME280;18147;51.952;6.146;2023-12-20T10:13:10;101402.34;;;6.96;100.00
31538;BME280;18147;51.952;6.146;2023-12-20T10:15:37;101407.81;;;6.91;100.00
31538;BME280;18147;51.952;6.146;2023-12-20T10:18:04;101410.28;;;6.96;100.00
31538;BME280;18147;51.952;6.146;2023-12-20T10:20:31;101412.88;;;6.97;100.00
31538;BME280;18147;51.952;6.146;2023-12-20T10:23:05;101406.66;;;6.98;100.00
31538;BME280;18147;51.952;6.146;2023-12-20T10:25:32;101401.97;;;7.05;100.00
31538;BME280;18147;51.952;6.146;2023-12-20T10:28:14;101411.56;;;7.08;100.00
31538;BME280;18147;51.952;6.146;2023-12-20T10:30:49;101412.31;;;7.11;100.00
31538;BME280;18147;51.952;6.146;2023-12-20T10:33:24;101408.72;;;7.14;100.00
31538;BME280;18147;51.952;6.146;2023-12-20T10:35:50;101409.38;;;7.19;100.00
31538;BME280;18147;51.952;6.146;2023-12-20T10:38:15;101410.31;;;7.18;100.00
31538;BME280;18147;51.952;6.146;2023-12-20T10:40:45;101404.56;;;7.29;100.00
31538;BME280;18147;51.952;6.146;2023-12-20T10:43:15;101393.53;;;7.39;100.00
31538;BME280;18147;51.952;6.146;2023-12-20T10:45:41;101393.81;;;7.32;100.00
31538;BME280;18147;51.952;6.146;2023-12-20T10:48:10;101389.56;;;7.27;100.00
31538;BME280;18147;51.952;6.146;2023-12-20T10:50:37;101386.22;;;7.44;100.00
31538;BME280;18147;51.952;6.146;2023-12-20T10:53:06;101374.63;;;7.47;100.00
31538;BME280;18147;51.952;6.146;2023-12-20T10:55:36;101374.88;;;7.41;100.00
31538;BME280;18147;51.952;6.146;2023-12-20T10:58:06;101368.16;;;7.32;100.00
31538;BME280;18147;51.952;6.146;2023-12-20T11:00:35;101380.38;;;7.36;100.00
31538;BME280;18147;51.952;6.146;2023-12-20T11:03:09;101369.84;;;7.35;100.00
31538;BME280;18147;51.952;6.146;2023-12-20T11:06:08;101367.47;;;7.27;100.00
31538;BME280;18147;51.952;6.146;2023-12-20T11:08:39;101373.47;;;7.32;100.00
31538;BME280;18147;51.952;6.146;2023-12-20T11:11:21;101373.59;;;7.29;100.00
31538;BME280;18147;51.952;6.146;2023-12-20T11:14:08;101365.47;;;7.34;100.00
31538;BME280;18147;51.952;6.146;2023-12-20T11:16:41;101368.63;;;7.42;100.00
31538;BME280;18147;51.952;6.146;2023-12-20T11:19:07;101364.81;;;7.49;100.00
31538;BME280;18147;51.952;6.146;2023-12-20T11:21:33;101355.91;;;7.50;100.00
31538;BME280;18147;51.952;6.146;2023-12-20T11:24:00;101356.84;;;7.49;100.00
31538;BME280;18147;51.952;6.146;2023-12-20T11:26:49;101357.91;;;7.65;100.00
31538;BME280;18147;51.952;6.146;2023-12-20T11:29:38;101350.44;;;7.75;100.00
31538;BME280;18147;51.952;6.146;2023-12-20T11:34:51;101326.53;;;7.75;100.00
31538;BME280;18147;51.952;6.146;2023-12-20T11:37:19;101335.16;;;7.80;100.00
31538;BME280;18147;51.952;6.146;2023-12-20T11:39:45;101321.88;;;7.80;100.00
31538;BME280;18147;51.952;6.146;2023-12-20T11:42:10;101323.34;;;7.67;100.00
31538;BME280;18147;51.952;6.146;2023-12-20T11:44:37;101328.59;;;7.68;100.00
31538;BME280;18147;51.952;6.146;2023-12-20T11:47:08;101313.19;;;7.76;100.00
31538;BME280;18147;51.952;6.146;2023-12-20T11:49:34;101308.91;;;7.93;100.00
31538;BME280;18147;51.952;6.146;2023-12-20T11:52:11;101301.59;;;7.98;100.00
31538;BME280;18147;51.952;6.146;2023-12-20T11:54:37;101309.53;;;7.99;100.00
31538;BME280;18147;51.952;6.146;2023-12-20T11:57:13;101305.72;;;8.05;100.00
31538;BME280;18147;51.952;6.146;2023-12-20T11:59:40;101310.16;;;8.04;100.00
31538;BME280;18147;51.952;6.146;2023-12-20T12:02:11;101306.00;;;7.99;100.00
31538;BME280;18147;51.952;6.146;2023-12-20T12:04:37;101312.38;;;7.95;100.00
31538;BME280;18147;51.952;6.146;2023-12-20T12:07:06;101310.88;;;8.08;100.00
31538;BME280;18147;51.952;6.146;2023-12-20T12:09:34;101306.56;;;8.05;100.00
31538;BME280;18147;51.952;6.146;2023-12-20T12:12:09;101302.94;;;8.27;100.00
31538;BME280;18147;51.952;6.146;2023-12-20T12:14:39;101287.19;;;8.22;100.00
31538;BME280;18147;51.952;6.146;2023-12-20T12:20:10;101282.69;;;8.24;100.00
31538;BME280;18147;51.952;6.146;2023-12-20T12:22:38;101284.91;;;8.15;100.00
31538;BME280;18147;51.952;6.146;2023-12-20T12:25:12;101281.03;;;8.22;100.00
31538;BME280;18147;51.952;6.146;2023-12-20T12:27:42;101267.44;;;8.28;100.00
31538;BME280;18147;51.952;6.146;2023-12-20T12:30:09;101259.47;;;8.28;100.00
31538;BME280;18147;51.952;6.146;2023-12-20T12:32:41;101266.47;;;8.30;100.00
31538;BME280;18147;51.952;6.146;2023-12-20T12:35:07;101267.84;;;8.39;100.00
31538;BME280;18147;51.952;6.146;2023-12-20T12:37:39;101260.75;;;8.40;100.00
31538;BME280;18147;51.952;6.146;2023-12-20T12:40:12;101252.69;;;8.41;100.00
31538;BME280;18147;51.952;6.146;2023-12-20T12:42:39;101245.78;;;8.37;100.00
31538;BME280;18147;51.952;6.146;2023-12-20T12:45:06;101249.59;;;8.50;100.00
31538;BME280;18147;51.952;6.146;2023-12-20T12:47:39;101242.69;;;8.46;100.00
31538;BME280;18147;51.952;6.146;2023-12-20T12:50:08;101235.28;;;8.53;100.00
31538;BME280;18147;51.952;6.146;2023-12-20T12:52:37;101232.56;;;8.54;100.00
31538;BME280;18147;51.952;6.146;2023-12-20T12:55:04;101227.69;;;8.45;100.00
31538;BME280;18147;51.952;6.146;2023-12-20T12:57:31;101238.81;;;8.35;100.00
31538;BME280;18147;51.952;6.146;2023-12-20T13:00:06;101241.34;;;8.38;100.00
31538;BME280;18147;51.952;6.146;2023-12-20T13:02:37;101232.91;;;8.28;100.00